sensor_id;sensor_type;location;lat;lon;timestamp;pressure;altitude;pressure_sealevel;temperature;humidity
19831;BME280;10076;52.008;4.708;2022-11-15T00:00:19;100784.53;;;10.20;100.00
19831;BME280;10076;52.008;4.708;2022-11-15T00:02:45;100781.56;;;10.25;100.00
19831;BME280;10076;52.008;4.708;2022-11-15T00:05:10;100784.72;;;10.42;100.00
19831;BME280;10076;52.008;4.708;2022-11-15T00:07:35;100789.56;;;10.35;100.00
19831;BME280;10076;52.008;4.708;2022-11-15T00:10:01;100788.84;;;10.21;100.00
19831;BME280;10076;52.008;4.708;2022-11-15T00:12:27;100792.75;;;10.28;100.00
19831;BME280;10076;52.008;4.708;2022-11-15T00:14:53;100786.09;;;10.23;100.00
19831;BME280;10076;52.008;4.708;2022-11-15T00:17:18;100784.09;;;10.38;100.00
19831;BME280;10076;52.008;4.708;2022-11-15T00:19:44;100784.38;;;10.46;100.00
19831;BME280;10076;52.008;4.708;2022-11-15T00:22:09;100782.28;;;10.39;100.00
19831;BME280;10076;52.008;4.708;2022-11-15T00:24:34;100784.31;;;10.35;100.00
19831;BME280;10076;52.008;4.708;2022-11-15T00:26:59;100785.38;;;10.33;100.00
19831;BME280;10076;52.008;4.708;2022-11-15T00:29:25;100781.13;;;10.43;100.00
19831;BME280;10076;52.008;4.708;2022-11-15T00:31:50;100782.41;;;10.37;100.00
19831;BME280;10076;52.008;4.708;2022-11-15T00:34:15;100785.56;;;10.42;100.00
19831;BME280;10076;52.008;4.708;2022-11-15T00:36:40;100775.38;;;10.61;100.00
19831;BME280;10076;52.008;4.708;2022-11-15T00:39:06;100765.47;;;10.65;100.00
19831;BME280;10076;52.008;4.708;2022-11-15T00:41:31;100765.19;;;10.32;100.00
19831;BME280;10076;52.008;4.708;2022-11-15T00:43:56;100765.28;;;10.43;100.00
19831;BME280;10076;52.008;4.708;2022-11-15T00:46:22;100760.75;;;10.45;100.00
19831;BME280;10076;52.008;4.708;2022-11-15T00:48:47;100759.03;;;10.56;100.00
19831;BME280;10076;52.008;4.708;2022-11-15T00:51:12;100761.25;;;10.62;100.00
19831;BME280;10076;52.008;4.708;2022-11-15T00:53:38;100754.72;;;10.43;100.00
19831;BME280;10076;52.008;4.708;2022-11-15T00:56:03;100755.50;;;10.32;100.00
19831;BME280;10076;52.008;4.708;2022-11-15T00:58:28;100748.94;;;10.38;100.00
19831;BME280;10076;52.008;4.708;2022-11-15T01:00:54;100755.53;;;10.56;100.00
19831;BME280;10076;52.008;4.708;2022-11-15T01:03:19;100757.94;;;10.71;100.00
19831;BME280;10076;52.008;4.708;2022-11-15T01:05:45;100756.22;;;10.83;100.00
19831;BME280;10076;52.008;4.708;2022-11-15T01:08:16;100756.81;;;10.86;100.00
19831;BME280;10076;52.008;4.708;2022-11-15T01:10:42;100746.41;;;10.72;100.00
19831;BME280;10076;52.008;4.708;2022-11-15T01:13:07;100751.75;;;10.83;100.00
19831;BME280;10076;52.008;4.708;2022-11-15T01:15:33;100741.78;;;10.63;100.00
19831;BME280;10076;52.008;4.708;2022-11-15T01:17:58;100743.13;;;10.45;100.00
19831;BME280;10076;52.008;4.708;2022-11-15T01:20:23;100743.16;;;10.69;100.00
19831;BME280;10076;52.008;4.708;2022-11-15T01:22:49;100735.28;;;10.56;100.00
19831;BME280;10076;52.008;4.708;2022-11-15T01:25:14;100736.84;;;10.59;100.00
19831;BME280;10076;52.008;4.708;2022-11-15T01:27:39;100739.44;;;10.71;100.00
19831;BME280;10076;52.008;4.708;2022-11-15T01:30:05;100729.22;;;10.90;100.00
19831;BME280;10076;52.008;4.708;2022-11-15T01:32:31;100731.91;;;11.01;100.00
19831;BME280;10076;52.008;4.708;2022-11-15T01:34:56;100728.78;;;10.96;100.00
19831;BME280;10076;52.008;4.708;2022-11-15T01:37:22;100728.38;;;10.90;100.00
19831;BME280;10076;52.008;4.708;2022-11-15T01:39:47;100724.66;;;10.92;100.00
19831;BME280;10076;52.008;4.708;2022-11-15T01:42:13;100733.50;;;11.03;100.00
19831;BME280;10076;52.008;4.708;2022-11-15T01:44:42;100727.72;;;10.99;100.00
19831;BME280;10076;52.008;4.708;2022-11-15T01:47:12;100723.91;;;11.13;100.00
19831;BME280;10076;52.008;4.708;2022-11-15T01:49:49;100721.50;;;10.87;100.00
19831;BME280;10076;52.008;4.708;2022-11-15T01:52:19;100723.91;;;11.13;100.00
19831;BME280;10076;52.008;4.708;2022-11-15T01:54:48;100720.28;;;11.03;100.00
19831;BME280;10076;52.008;4.708;2022-11-15T01:57:15;100718.59;;;10.79;100.00
19831;BME280;10076;52.008;4.708;2022-11-15T01:59:43;100716.63;;;10.94;100.00
19831;BME280;10076;52.008;4.708;2022-11-15T02:02:09;100705.66;;;10.87;100.00
19831;BME280;10076;52.008;4.708;2022-11-15T02:04:43;100713.41;;;10.78;100.00
19831;BME280;10076;52.008;4.708;2022-11-15T02:07:12;100706.56;;;10.99;100.00
19831;BME280;10076;52.008;4.708;2022-11-15T02:09:39;100708.25;;;11.00;100.00
19831;BME280;10076;52.008;4.708;2022-11-15T02:12:07;100705.50;;;11.01;100.00
19831;BME280;10076;52.008;4.708;2022-11-15T02:14:34;100698.19;;;11.04;100.00
19831;BME280;10076;52.008;4.708;2022-11-15T02:29:01;100672.25;;;11.09;100.00
19831;BME280;10076;52.008;4.708;2022-11-15T02:42:33;100651.38;;;11.63;100.00
19831;BME280;10076;52.008;4.708;2022-11-15T02:45:26;100655.44;;;11.56;100.00
19831;BME280;10076;52.008;4.708;2022-11-15T02:47:55;100654.13;;;11.61;100.00
19831;BME280;10076;52.008;4.708;2022-11-15T02:50:26;100657.38;;;11.54;100.00
19831;BME280;10076;52.008;4.708;2022-11-15T02:52:52;100664.50;;;11.30;100.00
19831;BME280;10076;52.008;4.708;2022-11-15T02:55:32;100656.59;;;11.30;100.00
19831;BME280;10076;52.008;4.708;2022-11-15T02:58:23;100660.94;;;11.42;100.00
19831;BME280;10076;52.008;4.708;2022-11-15T03:01:11;100655.53;;;11.43;100.00
19831;BME280;10076;52.008;4.708;2022-11-15T03:06:48;100650.84;;;11.47;100.00
19831;BME280;10076;52.008;4.708;2022-11-15T03:11:56;100653.19;;;11.51;100.00
19831;BME280;10076;52.008;4.708;2022-11-15T03:14:38;100657.13;;;11.57;100.00
19831;BME280;10076;52.008;4.708;2022-11-15T03:17:16;100641.88;;;11.93;100.00
19831;BME280;10076;52.008;4.708;2022-11-15T03:19:46;100655.47;;;11.88;100.00
19831;BME280;10076;52.008;4.708;2022-11-15T03:22:17;100656.19;;;11.69;100.00
19831;BME280;10076;52.008;4.708;2022-11-15T03:24:45;100653.19;;;11.73;100.00
19831;BME280;10076;52.008;4.708;2022-11-15T03:27:15;100662.06;;;12.05;100.00
19831;BME280;10076;52.008;4.708;2022-11-15T03:29:46;100659.34;;;11.95;100.00
19831;BME280;10076;52.008;4.708;2022-11-15T03:32:19;100661.59;;;12.00;100.00
19831;BME280;10076;52.008;4.708;2022-11-15T03:34:52;100672.41;;;12.19;100.00
19831;BME280;10076;52.008;4.708;2022-11-15T03:37:22;100656.69;;;11.95;100.00
19831;BME280;10076;52.008;4.708;2022-11-15T03:39:50;100649.56;;;11.96;100.00
19831;BME280;10076;52.008;4.708;2022-11-15T03:42:33;100655.81;;;12.06;100.00
19831;BME280;10076;52.008;4.708;2022-11-15T03:45:23;100663.63;;;12.18;100.00
19831;BME280;10076;52.008;4.708;2022-11-15T03:48:01;100661.66;;;12.31;100.00
19831;BME280;10076;52.008;4.708;2022-11-15T03:50:28;100656.78;;;12.16;100.00
19831;BME280;10076;52.008;4.708;2022-11-15T03:52:54;100666.78;;;12.12;100.00
19831;BME280;10076;52.008;4.708;2022-11-15T03:55:21;100666.50;;;12.26;100.00
19831;BME280;10076;52.008;4.708;2022-11-15T03:57:51;100662.00;;;12.48;100.00
19831;BME280;10076;52.008;4.708;2022-11-15T04:00:18;100652.88;;;12.41;100.00
19831;BME280;10076;52.008;4.708;2022-11-15T04:02:43;100649.50;;;12.39;100.00
19831;BME280;10076;52.008;4.708;2022-11-15T04:05:08;100650.94;;;12.43;100.00
19831;BME280;10076;52.008;4.708;2022-11-15T04:07:34;100651.06;;;12.53;100.00
19831;BME280;10076;52.008;4.708;2022-11-15T04:09:59;100640.75;;;12.28;100.00
19831;BME280;10076;52.008;4.708;2022-11-15T04:12:40;100632.03;;;12.48;100.00
19831;BME280;10076;52.008;4.708;2022-11-15T04:17:40;100638.78;;;12.52;100.00
19831;BME280;10076;52.008;4.708;2022-11-15T04:20:11;100632.28;;;12.45;100.00
19831;BME280;10076;52.008;4.708;2022-11-15T04:22:57;100629.78;;;12.43;100.00
19831;BME280;10076;52.008;4.708;2022-11-15T04:25:42;100625.50;;;12.63;100.00
19831;BME280;10076;52.008;4.708;2022-11-15T04:28:08;100625.94;;;12.68;100.00
19831;BME280;10076;52.008;4.708;2022-11-15T04:30:33;100634.09;;;12.87;100.00
19831;BME280;10076;52.008;4.708;2022-11-15T04:32:59;100626.59;;;12.92;100.00
19831;BME280;10076;52.008;4.708;2022-11-15T04:35:24;100625.16;;;12.77;100.00
19831;BME280;10076;52.008;4.708;2022-11-15T04:37:50;100639.50;;;12.85;100.00
19831;BME280;10076;52.008;4.708;2022-11-15T04:40:15;100637.34;;;12.79;100.00
19831;BME280;10076;52.008;4.708;2022-11-15T04:42:41;100642.56;;;12.70;100.00
19831;BME280;10076;52.008;4.708;2022-11-15T04:45:10;100649.88;;;12.88;100.00
19831;BME280;10076;52.008;4.708;2022-11-15T04:47:35;100651.50;;;13.00;100.00
19831;BME280;10076;52.008;4.708;2022-11-15T04:50:01;100646.25;;;12.89;100.00
19831;BME280;10076;52.008;4.708;2022-11-15T04:52:26;100648.91;;;12.89;100.00
19831;BME280;10076;52.008;4.708;2022-11-15T04:54:51;100646.44;;;12.86;100.00
19831;BME280;10076;52.008;4.708;2022-11-15T04:57:17;100640.81;;;12.91;100.00
19831;BME280;10076;52.008;4.708;2022-11-15T04:59:42;100648.84;;;13.00;100.00
19831;BME280;10076;52.008;4.708;2022-11-15T05:02:07;100656.22;;;12.86;100.00
19831;BME280;10076;52.008;4.708;2022-11-15T05:04:33;100656.72;;;12.91;100.00
19831;BME280;10076;52.008;4.708;2022-11-15T05:06:58;100652.47;;;12.99;100.00
19831;BME280;10076;52.008;4.708;2022-11-15T05:09:23;100656.72;;;12.80;100.00
19831;BME280;10076;52.008;4.708;2022-11-15T05:11:49;100669.78;;;13.03;100.00
19831;BME280;10076;52.008;4.708;2022-11-15T05:14:14;100665.13;;;12.96;100.00
19831;BME280;10076;52.008;4.708;2022-11-15T05:16:40;100670.88;;;13.01;100.00
19831;BME280;10076;52.008;4.708;2022-11-15T05:19:06;100665.72;;;12.99;100.00
19831;BME280;10076;52.008;4.708;2022-11-15T05:21:32;100670.81;;;13.11;100.00
19831;BME280;10076;52.008;4.708;2022-11-15T05:23:58;100676.53;;;13.27;100.00
19831;BME280;10076;52.008;4.708;2022-11-15T05:26:24;100661.81;;;13.14;100.00
19831;BME280;10076;52.008;4.708;2022-11-15T05:28:54;100670.78;;;13.22;100.00
19831;BME280;10076;52.008;4.708;2022-11-15T05:31:20;100665.06;;;13.07;100.00
19831;BME280;10076;52.008;4.708;2022-11-15T05:33:45;100652.78;;;13.06;100.00
19831;BME280;10076;52.008;4.708;2022-11-15T05:36:27;100653.56;;;12.97;100.00
19831;BME280;10076;52.008;4.708;2022-11-15T05:38:54;100648.72;;;13.02;100.00
19831;BME280;10076;52.008;4.708;2022-11-15T05:41:24;100655.19;;;13.09;100.00
19831;BME280;10076;52.008;4.708;2022-11-15T05:43:52;100651.34;;;13.02;100.00
19831;BME280;10076;52.008;4.708;2022-11-15T05:46:18;100649.75;;;13.10;100.00
19831;BME280;10076;52.008;4.708;2022-11-15T05:48:46;100649.28;;;13.05;100.00
19831;BME280;10076;52.008;4.708;2022-11-15T05:51:14;100648.53;;;13.14;100.00
19831;BME280;10076;52.008;4.708;2022-11-15T05:53:40;100648.13;;;12.98;100.00
19831;BME280;10076;52.008;4.708;2022-11-15T05:56:06;100653.50;;;13.08;100.00
19831;BME280;10076;52.008;4.708;2022-11-15T05:58:33;100653.84;;;13.14;100.00
19831;BME280;10076;52.008;4.708;2022-11-15T06:00:59;100663.06;;;12.99;100.00
19831;BME280;10076;52.008;4.708;2022-11-15T06:03:25;100663.91;;;13.20;100.00
19831;BME280;10076;52.008;4.708;2022-11-15T06:05:50;100657.25;;;13.25;100.00
19831;BME280;10076;52.008;4.708;2022-11-15T06:08:15;100670.94;;;13.10;100.00
19831;BME280;10076;52.008;4.708;2022-11-15T06:10:41;100676.00;;;12.93;100.00
19831;BME280;10076;52.008;4.708;2022-11-15T06:13:06;100684.28;;;13.19;100.00
19831;BME280;10076;52.008;4.708;2022-11-15T06:15:32;100676.00;;;12.93;100.00
19831;BME280;10076;52.008;4.708;2022-11-15T06:17:58;100677.56;;;12.84;100.00
19831;BME280;10076;52.008;4.708;2022-11-15T06:20:27;100681.16;;;12.83;100.00
19831;BME280;10076;52.008;4.708;2022-11-15T06:23:00;100692.22;;;12.99;100.00
19831;BME280;10076;52.008;4.708;2022-11-15T06:25:27;100685.88;;;12.80;100.00
19831;BME280;10076;52.008;4.708;2022-11-15T06:27:53;100690.19;;;12.92;100.00
19831;BME280;10076;52.008;4.708;2022-11-15T06:30:19;100696.09;;;12.95;100.00
19831;BME280;10076;52.008;4.708;2022-11-15T06:32:45;100693.69;;;12.81;100.00
19831;BME280;10076;52.008;4.708;2022-11-15T06:35:10;100699.94;;;12.91;100.00
19831;BME280;10076;52.008;4.708;2022-11-15T06:37:35;100703.50;;;12.70;100.00
19831;BME280;10076;52.008;4.708;2022-11-15T06:40:01;100691.88;;;12.93;100.00
19831;BME280;10076;52.008;4.708;2022-11-15T06:42:26;100698.94;;;12.61;100.00
19831;BME280;10076;52.008;4.708;2022-11-15T06:44:51;100696.31;;;12.50;100.00
19831;BME280;10076;52.008;4.708;2022-11-15T06:47:17;100702.06;;;12.55;100.00
19831;BME280;10076;52.008;4.708;2022-11-15T06:49:42;100708.94;;;12.57;100.00
19831;BME280;10076;52.008;4.708;2022-11-15T06:52:07;100701.56;;;12.61;100.00
19831;BME280;10076;52.008;4.708;2022-11-15T06:54:33;100706.38;;;12.67;100.00
19831;BME280;10076;52.008;4.708;2022-11-15T06:56:58;100700.38;;;12.54;100.00
19831;BME280;10076;52.008;4.708;2022-11-15T06:59:23;100703.75;;;12.56;100.00
19831;BME280;10076;52.008;4.708;2022-11-15T07:01:49;100711.47;;;12.59;100.00
19831;BME280;10076;52.008;4.708;2022-11-15T07:04:14;100710.91;;;12.44;100.00
19831;BME280;10076;52.008;4.708;2022-11-15T07:06:39;100713.41;;;12.57;100.00
19831;BME280;10076;52.008;4.708;2022-11-15T07:09:04;100705.19;;;12.60;100.00
19831;BME280;10076;52.008;4.708;2022-11-15T07:11:30;100697.06;;;12.41;100.00
19831;BME280;10076;52.008;4.708;2022-11-15T07:13:55;100698.44;;;12.67;100.00
19831;BME280;10076;52.008;4.708;2022-11-15T07:16:20;100702.09;;;12.44;100.00
19831;BME280;10076;52.008;4.708;2022-11-15T07:18:46;100694.22;;;12.64;100.00
19831;BME280;10076;52.008;4.708;2022-11-15T07:21:11;100697.09;;;12.72;100.00
19831;BME280;10076;52.008;4.708;2022-11-15T07:23:38;100694.19;;;12.75;100.00
19831;BME280;10076;52.008;4.708;2022-11-15T07:26:04;100700.84;;;12.70;100.00
19831;BME280;10076;52.008;4.708;2022-11-15T07:28:29;100705.06;;;12.72;100.00
19831;BME280;10076;52.008;4.708;2022-11-15T07:30:55;100698.84;;;12.83;100.00
19831;BME280;10076;52.008;4.708;2022-11-15T07:33:21;100707.25;;;12.67;100.00
19831;BME280;10076;52.008;4.708;2022-11-15T07:35:46;100709.88;;;12.56;100.00
19831;BME280;10076;52.008;4.708;2022-11-15T07:38:14;100707.16;;;12.47;100.00
19831;BME280;10076;52.008;4.708;2022-11-15T07:40:40;100704.69;;;12.66;100.00
19831;BME280;10076;52.008;4.708;2022-11-15T07:43:07;100695.28;;;12.73;100.00
19831;BME280;10076;52.008;4.708;2022-11-15T07:45:33;100694.34;;;12.63;100.00
19831;BME280;10076;52.008;4.708;2022-11-15T07:48:00;100689.28;;;12.60;100.00
19831;BME280;10076;52.008;4.708;2022-11-15T07:50:26;100690.66;;;12.54;100.00
19831;BME280;10076;52.008;4.708;2022-11-15T07:52:59;100691.72;;;12.63;100.00
19831;BME280;10076;52.008;4.708;2022-11-15T07:55:26;100698.72;;;12.53;100.00
19831;BME280;10076;52.008;4.708;2022-11-15T07:57:53;100694.38;;;12.52;100.00
19831;BME280;10076;52.008;4.708;2022-11-15T08:00:24;100686.06;;;12.45;100.00
19831;BME280;10076;52.008;4.708;2022-11-15T08:02:49;100685.88;;;12.80;100.00
19831;BME280;10076;52.008;4.708;2022-11-15T08:05:15;100680.31;;;12.83;100.00
19831;BME280;10076;52.008;4.708;2022-11-15T08:07:40;100680.31;;;12.94;100.00
19831;BME280;10076;52.008;4.708;2022-11-15T08:10:06;100677.56;;;12.84;100.00
19831;BME280;10076;52.008;4.708;2022-11-15T08:12:33;100676.22;;;12.90;100.00
19831;BME280;10076;52.008;4.708;2022-11-15T08:14:58;100668.41;;;12.88;100.00
19831;BME280;10076;52.008;4.708;2022-11-15T08:17:24;100664.06;;;12.87;100.00
19831;BME280;10076;52.008;4.708;2022-11-15T08:19:49;100660.31;;;12.90;100.00
19831;BME280;10076;52.008;4.708;2022-11-15T08:22:15;100658.41;;;12.92;100.00
19831;BME280;10076;52.008;4.708;2022-11-15T08:24:40;100660.63;;;13.07;100.00
19831;BME280;10076;52.008;4.708;2022-11-15T08:27:06;100652.03;;;13.14;100.00
19831;BME280;10076;52.008;4.708;2022-11-15T08:29:40;100657.16;;;12.96;100.00
19831;BME280;10076;52.008;4.708;2022-11-15T08:32:06;100659.00;;;13.36;100.00
19831;BME280;10076;52.008;4.708;2022-11-15T08:34:32;100655.81;;;13.62;100.00
19831;BME280;10076;52.008;4.708;2022-11-15T08:36:57;100651.13;;;13.75;100.00
19831;BME280;10076;52.008;4.708;2022-11-15T08:39:22;100652.66;;;14.07;100.00
19831;BME280;10076;52.008;4.708;2022-11-15T08:41:48;100645.91;;;14.24;100.00
19831;BME280;10076;52.008;4.708;2022-11-15T08:44:13;100648.84;;;14.21;100.00
19831;BME280;10076;52.008;4.708;2022-11-15T08:46:38;100657.34;;;14.15;100.00
19831;BME280;10076;52.008;4.708;2022-11-15T08:49:03;100637.56;;;14.38;100.00
19831;BME280;10076;52.008;4.708;2022-11-15T08:51:29;100642.44;;;14.42;100.00
19831;BME280;10076;52.008;4.708;2022-11-15T08:53:54;100633.25;;;14.55;100.00
19831;BME280;10076;52.008;4.708;2022-11-15T08:56:19;100620.25;;;14.71;100.00
19831;BME280;10076;52.008;4.708;2022-11-15T08:58:45;100629.78;;;14.93;100.00
19831;BME280;10076;52.008;4.708;2022-11-15T09:01:17;100620.69;;;14.86;100.00
19831;BME280;10076;52.008;4.708;2022-11-15T09:03:42;100613.69;;;14.75;100.00
19831;BME280;10076;52.008;4.708;2022-11-15T09:06:08;100617.88;;;14.68;100.00
19831;BME280;10076;52.008;4.708;2022-11-15T09:08:34;100614.53;;;14.66;100.00
19831;BME280;10076;52.008;4.708;2022-11-15T09:11:03;100623.31;;;14.67;100.00
19831;BME280;10076;52.008;4.708;2022-11-15T09:13:28;100629.91;;;14.72;100.00
19831;BME280;10076;52.008;4.708;2022-11-15T09:15:57;100629.63;;;15.04;100.00
19831;BME280;10076;52.008;4.708;2022-11-15T09:18:23;100623.50;;;15.68;100.00
19831;BME280;10076;52.008;4.708;2022-11-15T09:20:49;100631.81;;;15.91;100.00
19831;BME280;10076;52.008;4.708;2022-11-15T09:23:14;100625.34;;;15.58;100.00
19831;BME280;10076;52.008;4.708;2022-11-15T09:25:39;100623.47;;;15.31;100.00
19831;BME280;10076;52.008;4.708;2022-11-15T09:28:08;100627.16;;;15.57;100.00
19831;BME280;10076;52.008;4.708;2022-11-15T09:30:33;100634.34;;;15.47;100.00
19831;BME280;10076;52.008;4.708;2022-11-15T09:33:07;100614.97;;;15.64;100.00
19831;BME280;10076;52.008;4.708;2022-11-15T09:35:33;100619.47;;;15.64;100.00
19831;BME280;10076;52.008;4.708;2022-11-15T09:37:58;100626.91;;;15.51;100.00
19831;BME280;10076;52.008;4.708;2022-11-15T09:40:23;100620.06;;;15.20;100.00
19831;BME280;10076;52.008;4.708;2022-11-15T09:43:02;100615.81;;;15.65;100.00
19831;BME280;10076;52.008;4.708;2022-11-15T09:50:56;100619.25;;;15.84;100.00
19831;BME280;10076;52.008;4.708;2022-11-15T09:53:50;100617.91;;;15.71;100.00
19831;BME280;10076;52.008;4.708;2022-11-15T09:56:20;100618.69;;;15.81;100.00
19831;BME280;10076;52.008;4.708;2022-11-15T10:04:01;100591.94;;;16.36;100.00
19831;BME280;10076;52.008;4.708;2022-11-15T10:06:26;100592.16;;;16.77;100.00
19831;BME280;10076;52.008;4.708;2022-11-15T10:09:09;100588.09;;;17.08;100.00
19831;BME280;10076;52.008;4.708;2022-11-15T10:11:37;100589.03;;;17.41;100.00
19831;BME280;10076;52.008;4.708;2022-11-15T10:14:25;100573.53;;;17.70;100.00
19831;BME280;10076;52.008;4.708;2022-11-15T10:22:28;100573.19;;;19.19;100.00
19831;BME280;10076;52.008;4.708;2022-11-15T10:25:20;100576.38;;;19.31;100.00
19831;BME280;10076;52.008;4.708;2022-11-15T10:28:04;100568.97;;;20.41;100.00
19831;BME280;10076;52.008;4.708;2022-11-15T10:30:38;100567.75;;;20.66;100.00
19831;BME280;10076;52.008;4.708;2022-11-15T10:44:07;100541.09;;;21.60;100.00
19831;BME280;10076;52.008;4.708;2022-11-15T10:46:39;100541.53;;;21.35;100.00
19831;BME280;10076;52.008;4.708;2022-11-15T10:49:21;100528.03;;;21.43;100.00
19831;BME280;10076;52.008;4.708;2022-11-15T10:54:44;100530.06;;;21.04;100.00
19831;BME280;10076;52.008;4.708;2022-11-15T10:57:40;100534.00;;;20.49;100.00
19831;BME280;10076;52.008;4.708;2022-11-15T11:00:05;100529.66;;;20.25;100.00
19831;BME280;10076;52.008;4.708;2022-11-15T11:02:34;100523.00;;;19.21;100.00
19831;BME280;10076;52.008;4.708;2022-11-15T11:05:02;100523.88;;;18.74;100.00
19831;BME280;10076;52.008;4.708;2022-11-15T11:07:30;100523.84;;;18.42;100.00
19831;BME280;10076;52.008;4.708;2022-11-15T11:09:58;100509.03;;;17.99;100.00
19831;BME280;10076;52.008;4.708;2022-11-15T11:12:28;100516.28;;;18.22;100.00
19831;BME280;10076;52.008;4.708;2022-11-15T11:14:55;100513.97;;;18.19;100.00
19831;BME280;10076;52.008;4.708;2022-11-15T11:17:36;100499.72;;;18.10;100.00
19831;BME280;10076;52.008;4.708;2022-11-15T11:20:18;100494.47;;;17.93;100.00
19831;BME280;10076;52.008;4.708;2022-11-15T11:23:10;100486.34;;;18.10;100.00
19831;BME280;10076;52.008;4.708;2022-11-15T11:26:05;100481.66;;;18.04;100.00
19831;BME280;10076;52.008;4.708;2022-11-15T11:28:48;100483.28;;;17.90;100.00
19831;BME280;10076;52.008;4.708;2022-11-15T11:31:33;100478.03;;;17.64;100.00
19831;BME280;10076;52.008;4.708;2022-11-15T11:36:44;100453.16;;;18.29;100.00
19831;BME280;10076;52.008;4.708;2022-11-15T11:45:11;100452.59;;;18.17;100.00
19831;BME280;10076;52.008;4.708;2022-11-15T11:47:46;100460.84;;;18.48;100.00
19831;BME280;10076;52.008;4.708;2022-11-15T11:50:23;100451.44;;;18.12;100.00
19831;BME280;10076;52.008;4.708;2022-11-15T11:53:39;100450.63;;;18.35;100.00
19831;BME280;10076;52.008;4.708;2022-11-15T11:56:04;100440.25;;;18.88;100.00
19831;BME280;10076;52.008;4.708;2022-11-15T11:58:39;100423.09;;;19.67;100.00
19831;BME280;10076;52.008;4.708;2022-11-15T12:04:04;100425.38;;;20.67;100.00
19831;BME280;10076;52.008;4.708;2022-11-15T12:06:47;100420.22;;;21.52;100.00
19831;BME280;10076;52.008;4.708;2022-11-15T12:09:32;100413.00;;;22.02;100.00
19831;BME280;10076;52.008;4.708;2022-11-15T12:12:13;100410.75;;;22.95;100.00
19831;BME280;10076;52.008;4.708;2022-11-15T12:14:56;100418.81;;;23.63;100.00
19831;BME280;10076;52.008;4.708;2022-11-15T12:17:26;100406.34;;;23.15;100.00
19831;BME280;10076;52.008;4.708;2022-11-15T12:19:56;100386.19;;;23.45;98.26
19831;BME280;10076;52.008;4.708;2022-11-15T12:22:40;100386.34;;;23.31;100.00
19831;BME280;10076;52.008;4.708;2022-11-15T12:25:17;100372.66;;;23.85;97.25
19831;BME280;10076;52.008;4.708;2022-11-15T12:28:08;100376.44;;;24.10;91.83
19831;BME280;10076;52.008;4.708;2022-11-15T12:30:50;100376.47;;;24.36;89.29
19831;BME280;10076;52.008;4.708;2022-11-15T12:33:33;100370.88;;;24.38;88.55
19831;BME280;10076;52.008;4.708;2022-11-15T12:36:04;100364.81;;;23.97;86.90
19831;BME280;10076;52.008;4.708;2022-11-15T12:41:18;100350.44;;;23.83;89.69
19831;BME280;10076;52.008;4.708;2022-11-15T12:43:46;100351.38;;;24.48;88.29
19831;BME280;10076;52.008;4.708;2022-11-15T12:49:01;100348.66;;;24.29;88.45
19831;BME280;10076;52.008;4.708;2022-11-15T12:59:54;100334.63;;;22.47;100.00
19831;BME280;10076;52.008;4.708;2022-11-15T13:02:44;100327.66;;;21.90;100.00
19831;BME280;10076;52.008;4.708;2022-11-15T13:17:53;100306.34;;;19.50;100.00
19831;BME280;10076;52.008;4.708;2022-11-15T13:23:10;100300.00;;;19.21;100.00
19831;BME280;10076;52.008;4.708;2022-11-15T13:28:33;100285.81;;;18.66;100.00
19831;BME280;10076;52.008;4.708;2022-11-15T13:33:52;100267.38;;;18.09;100.00
19831;BME280;10076;52.008;4.708;2022-11-15T13:36:22;100262.88;;;17.78;100.00
19831;BME280;10076;52.008;4.708;2022-11-15T13:39:31;100268.38;;;17.52;100.00
19831;BME280;10076;52.008;4.708;2022-11-15T13:41:57;100257.47;;;17.22;100.00
19831;BME280;10076;52.008;4.708;2022-11-15T13:44:31;100256.94;;;17.11;100.00
19831;BME280;10076;52.008;4.708;2022-11-15T13:47:05;100244.13;;;17.14;100.00
19831;BME280;10076;52.008;4.708;2022-11-15T13:49:32;100246.28;;;17.11;100.00
19831;BME280;10076;52.008;4.708;2022-11-15T13:52:00;100238.91;;;16.56;100.00
19831;BME280;10076;52.008;4.708;2022-11-15T13:54:38;100226.00;;;16.10;100.00
19831;BME280;10076;52.008;4.708;2022-11-15T13:57:14;100224.56;;;16.23;100.00
19831;BME280;10076;52.008;4.708;2022-11-15T14:02:16;100215.31;;;16.02;100.00
19831;BME280;10076;52.008;4.708;2022-11-15T14:05:39;100223.72;;;15.89;100.00
19831;BME280;10076;52.008;4.708;2022-11-15T14:08:03;100204.16;;;16.06;100.00
19831;BME280;10076;52.008;4.708;2022-11-15T14:10:34;100188.78;;;15.92;100.00
19831;BME280;10076;52.008;4.708;2022-11-15T14:13:00;100190.38;;;16.03;100.00
19831;BME280;10076;52.008;4.708;2022-11-15T14:15:27;100188.38;;;15.80;100.00
19831;BME280;10076;52.008;4.708;2022-11-15T14:17:53;100184.91;;;15.87;100.00
19831;BME280;10076;52.008;4.708;2022-11-15T14:22:59;100172.59;;;15.61;100.00
19831;BME280;10076;52.008;4.708;2022-11-15T14:25:29;100168.31;;;15.42;100.00
19831;BME280;10076;52.008;4.708;2022-11-15T14:30:36;100156.75;;;15.77;100.00
19831;BME280;10076;52.008;4.708;2022-11-15T14:33:01;100151.44;;;15.77;100.00
19831;BME280;10076;52.008;4.708;2022-11-15T14:35:28;100145.34;;;15.67;100.00
19831;BME280;10076;52.008;4.708;2022-11-15T14:37:53;100146.47;;;15.56;100.00
19831;BME280;10076;52.008;4.708;2022-11-15T14:40:21;100138.22;;;15.67;100.00
19831;BME280;10076;52.008;4.708;2022-11-15T14:42:48;100140.03;;;15.67;100.00
19831;BME280;10076;52.008;4.708;2022-11-15T14:45:19;100131.06;;;15.42;100.00
19831;BME280;10076;52.008;4.708;2022-11-15T14:47:45;100132.16;;;15.15;100.00